createdAt,value
2022-11-20T00:01:26.643Z,28.75
2022-11-20T00:03:55.395Z,27.37
2022-11-20T00:06:23.601Z,26.00
2022-11-20T00:08:51.523Z,23.70
2022-11-20T00:11:24.473Z,23.73
2022-11-20T00:13:54.098Z,21.10
2022-11-20T00:16:23.614Z,18.75
2022-11-20T00:18:51.028Z,22.30
2022-11-20T00:21:20.739Z,21.98
2022-11-20T00:23:50.312Z,20.50
2022-11-20T00:26:19.901Z,22.92
2022-11-20T00:28:53.111Z,20.55
2022-11-20T00:31:21.089Z,20.60
2022-11-20T00:33:48.912Z,18.00
2022-11-20T00:36:18.863Z,17.55
2022-11-20T00:38:47.210Z,17.40
2022-11-20T00:41:16.485Z,18.80
2022-11-20T00:43:44.018Z,19.30
2022-11-20T00:46:14.838Z,19.85
2022-11-20T00:48:42.558Z,3.83
2022-11-20T00:51:10.161Z,20.30
2022-11-20T00:53:37.766Z,22.67
2022-11-20T00:56:07.237Z,19.15
2022-11-20T00:58:36.727Z,20.62
2022-11-20T01:01:06.916Z,19.98
2022-11-20T01:03:36.000Z,21.15
2022-11-20T01:06:05.670Z,21.37
2022-11-20T01:08:36.888Z,19.62
2022-11-20T01:11:07.702Z,21.25
2022-11-20T01:13:38.334Z,22.62
2022-11-20T01:16:16.414Z,19.67
2022-11-20T01:18:46.463Z,22.10
2022-11-20T01:21:16.431Z,20.45
2022-11-20T01:23:44.501Z,21.92
2022-11-20T01:26:14.183Z,18.60
2022-11-20T01:28:42.234Z,18.15
2022-11-20T01:31:13.935Z,1.00
2022-11-20T01:33:42.500Z,17.55
2022-11-20T01:36:10.569Z,20.12
2022-11-20T01:38:37.957Z,19.42
2022-11-20T01:41:06.250Z,19.00
2022-11-20T01:43:33.604Z,20.62
2022-11-20T01:46:26.069Z,19.52
2022-11-20T01:49:04.102Z,20.70
2022-11-20T01:51:43.726Z,19.02
2022-11-20T01:54:17.415Z,19.15
2022-11-20T01:56:47.293Z,18.25
2022-11-20T01:59:17.061Z,19.08
2022-11-20T02:01:44.524Z,17.37
2022-11-20T02:04:13.067Z,18.62
2022-11-20T02:06:46.123Z,18.00
2022-11-20T02:09:14.698Z,19.45
2022-11-20T02:11:42.101Z,18.73
2022-11-20T02:14:09.836Z,22.15
2022-11-20T02:16:45.091Z,20.77
2022-11-20T02:19:26.137Z,19.25
2022-11-20T02:21:53.586Z,21.50
2022-11-20T02:24:22.972Z,19.48
2022-11-20T02:26:54.526Z,19.37
2022-11-20T02:29:33.743Z,18.23
2022-11-20T02:32:02.448Z,16.48
2022-11-20T02:34:30.106Z,19.42
2022-11-20T02:36:57.964Z,20.88
2022-11-20T02:39:26.641Z,19.83
2022-11-20T02:41:55.272Z,20.60
2022-11-20T02:44:22.614Z,22.77
2022-11-20T02:46:49.955Z,24.67
2022-11-20T02:49:18.002Z,26.00
2022-11-20T02:51:45.626Z,25.58
2022-11-20T02:54:12.942Z,27.73
2022-11-20T02:56:40.585Z,27.98
2022-11-20T02:59:08.166Z,29.63
2022-11-20T03:01:35.630Z,30.00
2022-11-20T03:04:03.336Z,31.87
2022-11-20T03:06:30.749Z,28.45
2022-11-20T03:08:58.043Z,30.92
2022-11-20T03:11:25.655Z,31.85
2022-11-20T03:13:52.998Z,29.40
2022-11-20T03:16:22.146Z,31.73
2022-11-20T03:18:50.119Z,32.13
2022-11-20T03:21:17.682Z,31.40
2022-11-20T03:23:44.997Z,30.55
2022-11-20T03:26:24.278Z,30.58
2022-11-20T03:28:53.390Z,29.67
2022-11-20T03:31:23.214Z,29.50
2022-11-20T03:33:50.700Z,30.48
2022-11-20T03:36:19.412Z,29.02
2022-11-20T03:38:47.505Z,29.95
2022-11-20T03:41:18.850Z,27.75
2022-11-20T03:43:57.767Z,33.55
2022-11-20T03:46:25.883Z,7.43
2022-11-20T03:48:53.451Z,31.95
2022-11-20T03:51:25.600Z,32.38
2022-11-20T03:53:54.745Z,30.42
2022-11-20T03:56:25.310Z,30.83
2022-11-20T03:58:53.009Z,30.95
2022-11-20T04:01:22.828Z,30.20
2022-11-20T04:03:50.744Z,28.67
2022-11-20T04:06:20.687Z,31.00
2022-11-20T04:08:53.332Z,30.58
2022-11-20T04:11:26.373Z,32.70
2022-11-20T04:13:57.367Z,34.00
2022-11-20T04:16:26.043Z,31.23
2022-11-20T04:18:58.130Z,30.75
2022-11-20T04:21:26.725Z,32.63
2022-11-20T04:23:54.605Z,30.02
2022-11-20T04:26:23.127Z,28.33
2022-11-20T04:28:50.875Z,27.77
2022-11-20T04:31:23.174Z,26.45
2022-11-20T04:33:51.044Z,24.42
2022-11-20T04:36:22.046Z,24.58
2022-11-20T04:38:57.623Z,27.67
2022-11-20T04:41:27.282Z,25.73
2022-11-20T04:44:00.301Z,27.08
2022-11-20T04:46:28.603Z,26.83
2022-11-20T04:48:55.965Z,27.20
2022-11-20T04:51:23.350Z,25.05
2022-11-20T04:53:50.944Z,24.77
2022-11-20T04:56:18.299Z,23.75
2022-11-20T04:58:45.744Z,24.80
2022-11-20T05:01:18.475Z,22.67
2022-11-20T05:03:46.328Z,24.95
2022-11-20T05:06:16.690Z,28.25
2022-11-20T05:08:44.343Z,23.20
2022-11-20T05:11:13.872Z,22.65
2022-11-20T05:13:41.785Z,23.80
2022-11-20T05:16:15.050Z,25.30
2022-11-20T05:18:43.351Z,23.38
2022-11-20T05:21:11.560Z,24.63
2022-11-20T05:23:39.530Z,22.45
2022-11-20T05:26:09.715Z,23.83
2022-11-20T05:28:37.038Z,23.25
2022-11-20T05:31:07.972Z,26.20
2022-11-20T05:33:36.420Z,23.58
2022-11-20T05:36:05.261Z,22.13
2022-11-20T05:38:32.718Z,22.65
2022-11-20T05:41:20.474Z,25.62
2022-11-20T05:43:48.741Z,22.80
2022-11-20T05:46:26.415Z,23.55
2022-11-20T05:48:56.642Z,25.48
2022-11-20T05:51:24.675Z,22.00
2022-11-20T05:53:51.989Z,26.50
2022-11-20T05:56:21.535Z,27.90
2022-11-20T05:58:49.793Z,29.30
2022-11-20T06:01:20.188Z,28.33
2022-11-20T06:03:48.789Z,28.83
2022-11-20T06:06:16.566Z,25.37
2022-11-20T06:08:45.519Z,26.90
2022-11-20T06:11:14.467Z,23.98
2022-11-20T06:13:42.971Z,24.45
2022-11-20T06:16:11.720Z,24.10
2022-11-20T06:18:39.823Z,23.48
2022-11-20T06:21:13.510Z,22.70
2022-11-20T06:23:41.637Z,22.17
2022-11-20T06:26:11.410Z,21.75
2022-11-20T06:28:39.246Z,20.50
2022-11-20T06:31:07.761Z,22.17
2022-11-20T06:33:35.289Z,23.77
2022-11-20T06:36:08.971Z,25.42
2022-11-20T06:38:38.600Z,24.85
2022-11-20T06:41:14.089Z,25.65
2022-11-20T06:43:41.948Z,24.73
2022-11-20T06:46:11.283Z,26.05
2022-11-20T06:48:38.694Z,26.35
2022-11-20T06:51:07.853Z,24.58
2022-11-20T06:53:35.458Z,22.17
2022-11-20T06:56:21.356Z,23.90
2022-11-20T06:58:49.002Z,21.27
2022-11-20T07:01:16.647Z,26.00
2022-11-20T07:03:44.090Z,23.35
2022-11-20T07:06:11.928Z,26.15
2022-11-20T07:08:39.301Z,28.12
2022-11-20T07:11:08.036Z,23.12
2022-11-20T07:13:35.800Z,23.35
2022-11-20T07:16:06.315Z,23.77
2022-11-20T07:18:33.863Z,24.98
2022-11-20T07:21:02.891Z,24.37
2022-11-20T07:23:30.323Z,25.67
2022-11-20T07:25:58.014Z,26.62
2022-11-20T07:28:25.592Z,22.40
2022-11-20T07:30:53.855Z,25.23
2022-11-20T07:33:21.523Z,22.27
2022-11-20T07:35:49.134Z,22.95
2022-11-20T07:38:16.446Z,23.52
2022-11-20T07:40:43.805Z,24.83
2022-11-20T07:43:11.426Z,25.42
2022-11-20T07:45:39.791Z,24.98
2022-11-20T07:48:07.112Z,23.65
2022-11-20T07:50:34.710Z,27.80
2022-11-20T07:53:05.736Z,28.48
2022-11-20T07:55:33.461Z,30.50
2022-11-20T07:58:01.053Z,28.95
2022-11-20T08:00:28.523Z,25.52
2022-11-20T08:02:56.219Z,25.40
2022-11-20T08:05:23.589Z,25.33
2022-11-20T08:07:50.893Z,32.03
2022-11-20T08:10:18.535Z,25.80
2022-11-20T08:13:08.778Z,26.15
2022-11-20T08:15:36.821Z,25.65
2022-11-20T08:18:30.141Z,27.15
2022-11-20T08:20:56.788Z,29.67
2022-11-20T08:23:24.252Z,27.95
2022-11-20T08:25:52.232Z,30.75
2022-11-20T08:28:22.574Z,25.23
2022-11-20T08:30:51.176Z,29.52
2022-11-20T08:33:19.172Z,29.12
2022-11-20T08:35:47.117Z,27.73
2022-11-20T08:38:14.469Z,29.23
2022-11-20T08:40:41.781Z,30.62
2022-11-20T08:43:09.356Z,30.92
2022-11-20T08:45:36.659Z,29.65
2022-11-20T08:48:04.490Z,26.85
2022-11-20T08:50:34.017Z,26.37
2022-11-20T08:53:05.485Z,22.67
2022-11-20T08:55:33.393Z,24.45
2022-11-20T08:58:05.167Z,22.23
2022-11-20T09:00:33.657Z,23.00
2022-11-20T09:03:02.177Z,23.27
2022-11-20T09:05:30.142Z,22.50
2022-11-20T09:07:58.438Z,22.25
2022-11-20T09:10:26.286Z,25.05
2022-11-20T09:12:54.634Z,25.85
2022-11-20T09:15:22.323Z,21.23
2022-11-20T09:17:59.311Z,21.87
2022-11-20T09:20:29.618Z,22.87
2022-11-20T09:22:57.628Z,24.33
2022-11-20T09:25:25.159Z,23.77
2022-11-20T09:27:59.664Z,23.10
2022-11-20T09:30:27.746Z,27.17
2022-11-20T09:32:56.150Z,26.70
2022-11-20T09:35:23.655Z,21.58
2022-11-20T09:37:51.227Z,21.52
2022-11-20T09:40:24.339Z,21.40
2022-11-20T09:43:13.198Z,20.75
2022-11-20T09:46:04.079Z,23.10
2022-11-20T09:48:53.140Z,25.37
2022-11-20T09:51:43.277Z,22.37
2022-11-20T09:54:19.440Z,26.77
2022-11-20T09:56:51.400Z,24.48
2022-11-20T09:59:32.311Z,23.62
2022-11-20T10:02:00.394Z,24.90
2022-11-20T10:04:31.346Z,24.87
2022-11-20T10:09:56.082Z,23.67
2022-11-20T10:12:47.049Z,25.02
2022-11-20T10:15:36.979Z,25.67
2022-11-20T10:18:12.388Z,26.37
2022-11-20T10:20:48.543Z,25.27
2022-11-20T10:23:30.869Z,25.25
2022-11-20T10:26:07.132Z,27.73
2022-11-20T10:29:02.330Z,22.13
2022-11-20T10:31:45.925Z,25.70
2022-11-20T10:34:23.078Z,24.42
2022-11-20T10:36:59.778Z,24.25
2022-11-20T10:39:34.978Z,25.50
2022-11-20T10:42:02.700Z,24.58
2022-11-20T10:44:55.102Z,25.60
2022-11-20T10:47:23.935Z,25.52
2022-11-20T10:49:56.897Z,26.77
2022-11-20T10:52:34.132Z,24.40
2022-11-20T10:55:41.014Z,26.00
2022-11-20T10:58:17.678Z,28.55
2022-11-20T11:00:45.076Z,29.17
2022-11-20T11:03:28.462Z,24.55
2022-11-20T11:06:08.105Z,26.37
2022-11-20T11:08:39.355Z,24.02
2022-11-20T11:11:21.752Z,26.87
2022-11-20T11:13:49.337Z,25.23
2022-11-20T11:16:25.642Z,26.90
2022-11-20T11:19:08.240Z,25.50
2022-11-20T11:21:37.015Z,28.65
2022-11-20T11:24:27.059Z,26.50
2022-11-20T11:26:59.696Z,24.33
2022-11-20T11:29:30.400Z,25.75
2022-11-20T11:32:24.297Z,26.92
2022-11-20T11:35:03.510Z,26.17
2022-11-20T11:37:37.058Z,28.95
2022-11-20T11:42:56.523Z,40.12
2022-11-20T11:45:24.712Z,41.20
2022-11-20T11:47:53.872Z,35.85
2022-11-20T11:50:32.148Z,28.77
2022-11-20T11:53:10.593Z,29.17
2022-11-20T11:55:51.351Z,29.23
2022-11-20T11:58:46.620Z,28.00
2022-11-20T12:01:26.420Z,30.05
2022-11-20T12:04:18.722Z,26.70
2022-11-20T12:06:49.771Z,26.75
2022-11-20T12:09:19.374Z,29.48
2022-11-20T12:11:50.331Z,28.30
2022-11-20T12:14:44.303Z,30.08
2022-11-20T12:17:13.023Z,32.40
2022-11-20T12:19:41.907Z,33.28
2022-11-20T12:22:37.602Z,31.83
2022-11-20T12:25:11.993Z,31.67
2022-11-20T12:27:59.256Z,31.55
2022-11-20T12:30:27.362Z,32.55
2022-11-20T12:33:16.608Z,30.17
2022-11-20T12:36:10.217Z,33.17
2022-11-20T12:39:07.412Z,30.37
2022-11-20T12:41:59.787Z,32.30
2022-11-20T12:44:56.027Z,35.28
2022-11-20T12:47:42.473Z,31.67
2022-11-20T12:50:13.913Z,33.83
2022-11-20T12:52:53.382Z,31.25
2022-11-20T12:55:42.628Z,35.40
2022-11-20T12:58:19.477Z,33.00
2022-11-20T13:01:09.545Z,33.42
2022-11-20T13:03:44.928Z,33.42
2022-11-20T13:06:17.502Z,30.12
2022-11-20T13:08:57.255Z,31.60
2022-11-20T13:11:35.308Z,35.25
2022-11-20T13:14:23.099Z,34.70
2022-11-20T13:17:15.409Z,32.20
2022-11-20T13:19:49.100Z,34.83
2022-11-20T13:22:32.665Z,44.88
2022-11-20T13:25:00.752Z,36.95
2022-11-20T13:27:31.967Z,30.20
2022-11-20T13:30:14.655Z,32.88
2022-11-20T13:32:55.373Z,33.75
2022-11-20T13:35:55.741Z,36.72
2022-11-20T13:38:23.240Z,33.42
2022-11-20T13:40:59.610Z,32.15
2022-11-20T13:43:36.389Z,32.60
2022-11-20T13:46:07.135Z,38.75
2022-11-20T13:48:46.524Z,35.50
2022-11-20T13:51:53.158Z,31.58
2022-11-20T13:54:45.682Z,34.53
2022-11-20T13:57:58.806Z,28.58
2022-11-20T14:00:27.032Z,28.62
2022-11-20T14:03:07.643Z,51.70
2022-11-20T14:05:38.727Z,56.03
2022-11-20T14:08:08.202Z,32.22
2022-11-20T14:10:35.669Z,29.33
2022-11-20T14:13:20.466Z,30.70
2022-11-20T14:18:27.126Z,30.80
2022-11-20T14:20:55.423Z,27.33
2022-11-20T14:23:31.631Z,30.90
2022-11-20T14:25:59.654Z,31.42
2022-11-20T14:28:28.956Z,31.65
2022-11-20T14:30:57.865Z,30.20
2022-11-20T14:33:27.659Z,35.97
2022-11-20T14:35:57.455Z,45.53
2022-11-20T14:38:28.803Z,38.88
2022-11-20T14:41:08.285Z,39.20
2022-11-20T14:43:38.995Z,39.72
2022-11-20T14:46:09.196Z,37.17
2022-11-20T14:48:40.502Z,37.17
2022-11-20T14:51:12.046Z,35.80
2022-11-20T14:53:40.218Z,35.10
2022-11-20T14:56:09.526Z,34.85
2022-11-20T14:58:36.950Z,37.05
2022-11-20T15:01:08.907Z,40.20
2022-11-20T15:03:41.453Z,33.67
2022-11-20T15:06:12.694Z,37.50
2022-11-20T15:08:52.366Z,39.92
2022-11-20T15:11:23.773Z,42.80
2022-11-20T15:13:51.575Z,47.13
2022-11-20T15:16:21.577Z,42.13
2022-11-20T15:18:49.390Z,44.85
2022-11-20T15:21:19.245Z,47.25
2022-11-20T15:23:47.069Z,46.05
2022-11-20T15:26:20.191Z,78.18
2022-11-20T15:28:52.364Z,134.48
2022-11-20T15:31:24.699Z,105.32
2022-11-20T15:33:52.886Z,91.97
2022-11-20T15:36:20.845Z,127.25
2022-11-20T15:38:48.734Z,112.68
2022-11-20T15:41:17.233Z,99.45
2022-11-20T15:43:45.252Z,90.87
2022-11-20T15:46:15.126Z,84.70
2022-11-20T15:48:48.927Z,77.43
2022-11-20T15:51:35.362Z,66.25
2022-11-20T15:54:21.872Z,68.30
2022-11-20T15:56:51.025Z,62.58
2022-11-20T15:59:19.585Z,58.53
2022-11-20T16:01:47.700Z,54.70
2022-11-20T16:04:17.124Z,56.40
2022-11-20T16:06:44.711Z,53.72
2022-11-20T16:09:12.194Z,52.95
2022-11-20T16:11:40.309Z,62.95
2022-11-20T16:14:29.917Z,65.12
2022-11-20T16:16:58.102Z,10.80
2022-11-20T16:19:25.882Z,58.35
2022-11-20T16:21:55.196Z,56.63
2022-11-20T16:24:26.527Z,54.22
2022-11-20T16:26:55.220Z,51.33
2022-11-20T16:29:23.346Z,49.35
2022-11-20T16:31:51.417Z,49.05
2022-11-20T16:34:19.910Z,44.33
2022-11-20T16:36:48.405Z,41.63
2022-11-20T16:39:23.663Z,46.47
2022-11-20T16:41:52.134Z,40.05
2022-11-20T16:44:20.438Z,41.67
2022-11-20T16:46:48.476Z,38.92
2022-11-20T16:49:16.492Z,38.50
2022-11-20T16:51:44.752Z,38.40
2022-11-20T16:54:16.427Z,39.70
2022-11-20T16:56:48.726Z,36.85
2022-11-20T16:59:16.926Z,40.33
2022-11-20T17:01:44.872Z,41.22
2022-11-20T17:04:13.252Z,42.22
2022-11-20T17:06:44.981Z,42.50
2022-11-20T17:09:15.574Z,40.90
2022-11-20T17:11:44.007Z,40.10
2022-11-20T17:14:12.488Z,39.33
2022-11-20T17:16:41.079Z,40.60
2022-11-20T17:19:09.352Z,49.90
2022-11-20T17:21:37.956Z,67.20
2022-11-20T17:24:11.606Z,46.67
2022-11-20T17:26:42.156Z,45.78
2022-11-20T17:29:15.469Z,44.95
2022-11-20T17:31:44.350Z,42.97
2022-11-20T17:34:14.550Z,48.35
2022-11-20T17:36:46.036Z,49.22
2022-11-20T17:39:15.859Z,51.35
2022-11-20T17:41:44.296Z,48.92
2022-11-20T17:44:13.537Z,45.35
2022-11-20T17:46:42.881Z,47.33
2022-11-20T17:49:10.498Z,52.30
2022-11-20T17:51:42.929Z,48.67
2022-11-20T17:54:11.502Z,57.35
2022-11-20T17:56:58.744Z,49.40
2022-11-20T17:59:27.051Z,49.55
2022-11-20T18:01:56.797Z,53.13
2022-11-20T18:04:27.786Z,59.75
2022-11-20T18:06:55.894Z,62.50
2022-11-20T18:09:23.375Z,52.97
2022-11-20T18:11:51.594Z,52.83
2022-11-20T18:14:36.816Z,53.08
2022-11-20T18:17:12.918Z,45.60
2022-11-20T18:20:01.020Z,48.38
2022-11-20T18:22:34.715Z,51.75
2022-11-20T18:25:03.573Z,51.53
2022-11-20T18:27:31.523Z,47.17
2022-11-20T18:29:59.381Z,43.13
2022-11-20T18:32:27.738Z,52.78
2022-11-20T18:34:56.393Z,44.03
2022-11-20T18:37:24.568Z,38.35
2022-11-20T18:39:52.710Z,40.47
2022-11-20T18:42:39.366Z,42.13
2022-11-20T18:45:11.318Z,40.58
2022-11-20T18:47:40.881Z,54.28
2022-11-20T18:50:09.768Z,58.47
2022-11-20T18:52:44.886Z,47.67
2022-11-20T18:55:12.891Z,54.42
2022-11-20T18:57:44.893Z,53.70
2022-11-20T19:00:13.814Z,53.70
2022-11-20T19:02:43.313Z,52.97
2022-11-20T19:05:12.681Z,60.28
2022-11-20T19:07:41.487Z,57.58
2022-11-20T19:10:09.781Z,57.45
2022-11-20T19:12:38.374Z,53.42
2022-11-20T19:15:07.909Z,57.33
2022-11-20T19:17:38.078Z,54.35
2022-11-20T19:20:07.582Z,48.53
2022-11-20T19:22:35.779Z,62.72
2022-11-20T19:25:06.016Z,87.15
2022-11-20T19:27:34.184Z,81.12
2022-11-20T19:30:03.924Z,63.70
2022-11-20T19:32:33.242Z,64.82
2022-11-20T19:35:01.478Z,61.20
2022-11-20T19:37:29.361Z,59.40
2022-11-20T19:39:59.938Z,59.70
2022-11-20T19:42:28.017Z,61.97
2022-11-20T19:44:55.837Z,64.65
2022-11-20T19:47:35.385Z,60.17
2022-11-20T19:50:11.730Z,70.82
2022-11-20T19:52:39.486Z,62.60
2022-11-20T19:55:08.445Z,75.18
2022-11-20T19:57:36.817Z,120.13
2022-11-20T20:00:05.323Z,95.55
2022-11-20T20:02:34.287Z,106.70
2022-11-20T20:05:02.511Z,91.87
2022-11-20T20:07:30.474Z,95.03
2022-11-20T20:09:58.469Z,102.32
2022-11-20T20:12:27.771Z,96.85
2022-11-20T20:14:55.775Z,91.47
2022-11-20T20:17:24.194Z,85.12
2022-11-20T20:19:52.345Z,78.32
2022-11-20T20:22:20.525Z,74.68
2022-11-20T20:24:48.910Z,69.68
2022-11-20T20:27:18.129Z,62.05
2022-11-20T20:29:46.021Z,60.70
2022-11-20T20:32:14.417Z,60.50
2022-11-20T20:34:42.730Z,64.32
2022-11-20T20:37:12.319Z,56.85
2022-11-20T20:39:41.115Z,60.85
2022-11-20T20:42:09.352Z,63.13
2022-11-20T20:44:55.834Z,60.75
2022-11-20T20:47:23.907Z,83.55
2022-11-20T20:49:52.638Z,70.80
2022-11-20T20:52:23.595Z,77.55
2022-11-20T20:54:52.107Z,66.28
2022-11-20T20:57:20.275Z,67.15
2022-11-20T20:59:47.835Z,65.78
2022-11-20T21:02:16.034Z,66.75
2022-11-20T21:04:43.876Z,65.65
2022-11-20T21:07:11.577Z,67.75
2022-11-20T21:09:39.525Z,3.20
2022-11-20T21:12:09.758Z,66.55
2022-11-20T21:14:37.917Z,65.55
2022-11-20T21:17:07.039Z,60.83
2022-11-20T21:19:37.110Z,68.60
2022-11-20T21:22:04.491Z,65.32
2022-11-20T21:24:34.293Z,55.80
2022-11-20T21:27:05.160Z,52.72
2022-11-20T21:29:33.021Z,52.67
2022-11-20T21:32:00.526Z,51.00
2022-11-20T21:34:28.206Z,54.25
2022-11-20T21:36:56.179Z,47.95
2022-11-20T21:39:23.576Z,52.45
2022-11-20T21:41:50.910Z,46.42
2022-11-20T21:44:33.827Z,49.38
2022-11-20T21:47:01.162Z,46.60
2022-11-20T21:49:28.747Z,48.05
2022-11-20T21:51:56.419Z,46.88
2022-11-20T21:54:24.042Z,48.90
2022-11-20T21:56:52.009Z,60.33
2022-11-20T21:59:19.335Z,53.85
2022-11-20T22:01:46.792Z,54.75
2022-11-20T22:04:15.518Z,53.08
2022-11-20T22:06:42.841Z,55.22
2022-11-20T22:09:10.996Z,63.13
2022-11-20T22:11:38.610Z,62.95
2022-11-20T22:14:21.273Z,63.38
2022-11-20T22:16:50.622Z,51.50
2022-11-20T22:19:22.209Z,49.13
2022-11-20T22:21:52.677Z,56.60
2022-11-20T22:24:21.706Z,56.42
2022-11-20T22:26:49.633Z,64.00
2022-11-20T22:29:20.958Z,67.85
2022-11-20T22:31:48.470Z,62.22
2022-11-20T22:34:15.842Z,66.47
2022-11-20T22:36:43.470Z,59.33
2022-11-20T22:39:10.841Z,59.10
2022-11-20T22:41:38.167Z,63.22
2022-11-20T22:44:07.896Z,8.63
2022-11-20T22:46:36.476Z,60.95
2022-11-20T22:49:05.963Z,56.05
2022-11-20T22:51:36.270Z,53.25
2022-11-20T22:54:04.090Z,59.50
2022-11-20T22:56:31.673Z,11.70
2022-11-20T22:58:59.261Z,58.85
2022-11-20T23:01:31.943Z,59.35
2022-11-20T23:04:01.514Z,63.33
2022-11-20T23:06:29.573Z,63.05
2022-11-20T23:08:57.065Z,68.45
2022-11-20T23:11:27.523Z,102.93
2022-11-20T23:13:58.040Z,91.63
2022-11-20T23:16:27.452Z,78.70
2022-11-20T23:18:59.423Z,61.00
2022-11-20T23:21:27.292Z,56.80
2022-11-20T23:23:57.155Z,57.42
2022-11-20T23:26:26.783Z,58.17
2022-11-20T23:28:56.150Z,105.78
2022-11-20T23:31:24.185Z,110.60
2022-11-20T23:33:51.993Z,111.37
2022-11-20T23:36:19.590Z,83.90
2022-11-20T23:38:46.928Z,75.60
2022-11-20T23:41:14.853Z,58.10
2022-11-20T23:43:42.414Z,52.72
2022-11-20T23:46:15.109Z,49.50
2022-11-20T23:48:45.175Z,43.90
2022-11-20T23:51:13.606Z,42.60
2022-11-20T23:53:41.136Z,2.40
2022-11-20T23:56:08.725Z,45.83
2022-11-20T23:58:37.391Z,36.45
